createdAt,value
2018-11-04T00:01:59.116Z,6.28
2018-11-04T00:04:27.303Z,6.27
2018-11-04T00:06:55.469Z,6.21
2018-11-04T00:09:23.620Z,6.17
2018-11-04T00:11:51.756Z,6.13
2018-11-04T00:14:20.036Z,6.10
2018-11-04T00:16:48.183Z,6.06
2018-11-04T00:19:16.348Z,6.05
2018-11-04T00:21:44.523Z,6.04
2018-11-04T00:24:12.767Z,6.02
2018-11-04T00:26:40.805Z,6.05
2018-11-04T00:29:09.045Z,6.07
2018-11-04T00:31:37.182Z,6.09
2018-11-04T00:34:05.759Z,6.10
2018-11-04T00:36:33.918Z,6.11
2018-11-04T00:39:02.298Z,6.11
2018-11-04T00:41:30.450Z,6.12
2018-11-04T00:43:58.595Z,6.13
2018-11-04T00:46:26.746Z,6.09
2018-11-04T00:48:54.894Z,6.07
2018-11-04T00:51:23.058Z,6.06
2018-11-04T00:53:51.186Z,6.02
2018-11-04T00:56:19.363Z,5.99
2018-11-04T00:58:47.496Z,5.93
2018-11-04T01:01:15.662Z,5.93
2018-11-04T01:03:43.882Z,5.96
2018-11-04T01:06:12.016Z,6.01
2018-11-04T01:08:40.163Z,6.05
2018-11-04T01:11:08.323Z,6.05
2018-11-04T01:13:36.485Z,6.03
2018-11-04T01:16:04.626Z,6.04
2018-11-04T01:18:32.778Z,6.06
2018-11-04T01:21:00.973Z,6.05
2018-11-04T01:23:29.087Z,6.05
2018-11-04T01:26:04.149Z,6.06
2018-11-04T01:28:32.307Z,6.08
2018-11-04T01:31:00.438Z,6.07
2018-11-04T01:33:28.591Z,6.08
2018-11-04T01:35:56.765Z,6.09
2018-11-04T01:38:24.919Z,6.05
2018-11-04T01:40:53.071Z,5.99
2018-11-04T01:43:21.230Z,5.90
2018-11-04T01:45:49.387Z,5.87
2018-11-04T01:48:17.587Z,5.87
2018-11-04T01:50:45.751Z,5.88
2018-11-04T01:53:13.883Z,5.89
2018-11-04T01:55:42.035Z,5.90
2018-11-04T01:58:10.198Z,5.91
2018-11-04T02:00:38.383Z,5.88
2018-11-04T02:03:06.558Z,5.90
2018-11-04T02:05:34.709Z,5.90
2018-11-04T02:08:02.852Z,5.90
2018-11-04T02:10:31.036Z,5.92
2018-11-04T02:12:59.206Z,5.92
2018-11-04T02:15:27.410Z,5.93
2018-11-04T02:17:55.574Z,5.93
2018-11-04T02:20:23.749Z,5.91
2018-11-04T02:22:51.909Z,5.89
2018-11-04T02:25:20.076Z,5.86
2018-11-04T02:27:48.224Z,5.82
2018-11-04T02:30:17.267Z,5.76
2018-11-04T02:32:46.170Z,5.71
2018-11-04T02:35:15.054Z,5.67
2018-11-04T02:37:43.211Z,5.62
2018-11-04T02:40:12.011Z,5.59
2018-11-04T02:42:40.178Z,5.57
2018-11-04T02:45:08.563Z,5.58
2018-11-04T02:47:37.142Z,5.61
2018-11-04T02:50:05.899Z,5.67
2018-11-04T02:52:34.115Z,5.73
2018-11-04T02:55:02.315Z,5.76
2018-11-04T02:57:30.462Z,5.79
2018-11-04T02:59:58.616Z,5.79
2018-11-04T03:02:26.755Z,5.75
2018-11-04T03:05:01.618Z,5.73
2018-11-04T03:07:29.751Z,5.75
2018-11-04T03:09:57.927Z,5.79
2018-11-04T03:12:26.074Z,5.80
2018-11-04T03:14:54.211Z,5.82
2018-11-04T03:17:22.371Z,5.83
2018-11-04T03:19:50.542Z,5.87
2018-11-04T03:22:18.690Z,5.91
2018-11-04T03:24:46.879Z,5.95
2018-11-04T03:27:15.000Z,5.99
2018-11-04T03:29:43.236Z,6.00
2018-11-04T03:32:11.422Z,6.03
2018-11-04T03:34:39.561Z,6.08
2018-11-04T03:37:07.759Z,6.11
2018-11-04T03:39:35.918Z,6.14
2018-11-04T03:42:04.106Z,6.19
2018-11-04T03:44:32.252Z,6.23
2018-11-04T03:47:00.389Z,6.26
2018-11-04T03:49:28.551Z,6.28
2018-11-04T03:51:56.695Z,6.30
2018-11-04T03:54:24.907Z,6.32
2018-11-04T03:56:53.019Z,6.34
2018-11-04T03:59:21.182Z,6.38
2018-11-04T04:01:49.348Z,6.40
2018-11-04T04:04:17.495Z,6.44
2018-11-04T04:06:45.652Z,6.47
2018-11-04T04:09:14.044Z,6.51
2018-11-04T04:11:42.234Z,6.54
2018-11-04T04:14:10.386Z,6.57
2018-11-04T04:16:38.530Z,6.58
2018-11-04T04:19:06.659Z,6.61
2018-11-04T04:21:34.821Z,6.63
2018-11-04T04:24:02.950Z,6.66
2018-11-04T04:26:31.120Z,6.69
2018-11-04T04:28:59.304Z,6.72
2018-11-04T04:31:27.481Z,6.75
2018-11-04T04:33:55.622Z,6.80
2018-11-04T04:36:23.973Z,6.83
2018-11-04T04:38:52.142Z,6.87
2018-11-04T04:41:20.308Z,6.89
2018-11-04T04:43:48.489Z,6.90
2018-11-04T04:46:16.616Z,6.90
2018-11-04T04:48:44.785Z,6.91
2018-11-04T04:51:12.942Z,6.92
2018-11-04T04:53:41.101Z,6.95
2018-11-04T04:56:09.279Z,6.97
2018-11-04T04:58:37.434Z,7.00
2018-11-04T05:01:05.622Z,7.00
2018-11-04T05:03:33.767Z,7.02
2018-11-04T05:06:01.940Z,7.03
2018-11-04T05:08:30.099Z,7.07
2018-11-04T05:10:58.259Z,7.08
2018-11-04T05:13:26.407Z,7.13
2018-11-04T05:15:54.600Z,7.13
2018-11-04T05:18:22.751Z,7.16
2018-11-04T05:20:50.897Z,7.19
2018-11-04T05:23:19.087Z,7.20
2018-11-04T05:25:47.242Z,7.23
2018-11-04T05:28:15.391Z,7.26
2018-11-04T05:30:43.551Z,7.26
2018-11-04T05:33:11.699Z,7.29
2018-11-04T05:35:39.859Z,7.31
2018-11-04T05:38:08.033Z,7.31
2018-11-04T05:40:36.187Z,7.34
2018-11-04T05:43:04.354Z,7.35
2018-11-04T05:45:32.487Z,7.38
2018-11-04T05:48:00.639Z,7.39
2018-11-04T05:50:28.823Z,7.41
2018-11-04T05:52:56.983Z,7.43
2018-11-04T05:55:25.140Z,7.43
2018-11-04T05:57:53.323Z,7.45
2018-11-04T06:00:21.487Z,7.47
2018-11-04T06:02:49.654Z,7.49
2018-11-04T06:05:17.820Z,7.50
2018-11-04T06:07:46.087Z,7.53
2018-11-04T06:10:14.216Z,7.53
2018-11-04T06:12:42.358Z,7.55
2018-11-04T06:15:10.527Z,7.59
2018-11-04T06:17:38.667Z,7.58
2018-11-04T06:20:08.482Z,7.59
2018-11-04T06:22:36.663Z,7.61
2018-11-04T06:25:05.168Z,7.63
2018-11-04T06:27:33.907Z,7.64
2018-11-04T06:30:02.105Z,7.67
2018-11-04T06:32:30.251Z,7.69
2018-11-04T06:34:58.399Z,7.69
2018-11-04T06:37:26.541Z,7.71
2018-11-04T06:39:54.714Z,7.71
2018-11-04T06:42:22.867Z,7.73
2018-11-04T06:44:51.043Z,7.75
2018-11-04T06:47:19.225Z,7.78
2018-11-04T06:49:47.359Z,7.80
2018-11-04T06:52:15.546Z,7.82
2018-11-04T06:54:43.691Z,7.85
2018-11-04T06:57:11.862Z,7.87
2018-11-04T06:59:40.011Z,7.88
2018-11-04T07:02:08.338Z,7.89
2018-11-04T07:04:36.595Z,7.91
2018-11-04T07:07:04.796Z,7.93
2018-11-04T07:09:32.950Z,7.95
2018-11-04T07:12:01.109Z,7.98
2018-11-04T07:14:29.712Z,8.00
2018-11-04T07:16:57.885Z,8.02
2018-11-04T07:19:26.181Z,8.03
2018-11-04T07:21:54.338Z,8.06
2018-11-04T07:24:22.506Z,8.09
2018-11-04T07:26:50.742Z,8.12
2018-11-04T07:29:18.899Z,8.14
2018-11-04T07:31:47.060Z,8.18
2018-11-04T07:34:15.281Z,8.19
2018-11-04T07:36:43.471Z,8.21
2018-11-04T07:39:12.989Z,8.23
2018-11-04T07:41:41.307Z,8.26
2018-11-04T07:44:09.798Z,8.28
2018-11-04T07:46:37.915Z,8.32
2018-11-04T07:49:06.238Z,8.35
2018-11-04T07:51:34.468Z,8.38
2018-11-04T07:54:02.594Z,8.42
2018-11-04T07:56:30.790Z,8.45
2018-11-04T07:58:58.995Z,8.50
2018-11-04T08:01:27.206Z,8.53
2018-11-04T08:03:55.462Z,8.55
2018-11-04T08:06:23.633Z,8.58
2018-11-04T08:08:51.811Z,8.61
2018-11-04T08:11:19.956Z,8.64
2018-11-04T08:13:48.115Z,8.67
2018-11-04T08:16:16.297Z,8.70
2018-11-04T08:18:44.468Z,8.73
2018-11-04T08:21:12.652Z,8.77
2018-11-04T08:23:40.774Z,8.79
2018-11-04T08:26:08.924Z,8.83
2018-11-04T08:28:37.079Z,8.84
2018-11-04T08:31:05.316Z,8.87
2018-11-04T08:33:33.468Z,8.90
2018-11-04T08:36:01.631Z,8.93
2018-11-04T08:38:29.803Z,8.96
2018-11-04T08:40:57.995Z,8.99
2018-11-04T08:43:26.158Z,9.03
2018-11-04T08:45:54.351Z,9.06
2018-11-04T08:48:22.483Z,9.11
2018-11-04T08:50:50.631Z,9.12
2018-11-04T08:53:18.776Z,9.16
2018-11-04T08:55:47.087Z,9.20
2018-11-04T08:58:15.245Z,9.23
2018-11-04T09:00:43.395Z,9.27
2018-11-04T09:03:11.608Z,9.30
2018-11-04T09:05:39.756Z,9.34
2018-11-04T09:08:07.930Z,9.40
2018-11-04T09:10:36.084Z,9.44
2018-11-04T09:13:04.234Z,9.49
2018-11-04T09:15:32.424Z,9.55
2018-11-04T09:18:00.618Z,9.59
2018-11-04T09:20:28.771Z,9.62
2018-11-04T09:22:56.934Z,9.67
2018-11-04T09:25:25.119Z,9.71
2018-11-04T09:27:53.317Z,9.75
2018-11-04T09:30:21.512Z,9.77
2018-11-04T09:32:49.641Z,9.82
2018-11-04T09:35:17.828Z,9.84
2018-11-04T09:37:45.951Z,9.86
2018-11-04T09:40:14.532Z,9.90
2018-11-04T09:42:42.673Z,9.92
2018-11-04T09:45:11.182Z,9.94
2018-11-04T09:47:39.863Z,9.95
2018-11-04T09:50:09.675Z,9.98
2018-11-04T09:52:37.914Z,10.00
2018-11-04T09:55:06.702Z,10.03
2018-11-04T09:57:34.878Z,10.06
2018-11-04T10:00:03.070Z,10.08
2018-11-04T10:02:31.263Z,10.10
2018-11-04T10:04:59.427Z,10.11
2018-11-04T10:07:27.587Z,10.13
2018-11-04T10:09:55.755Z,10.16
2018-11-04T10:12:23.897Z,10.18
2018-11-04T10:14:52.038Z,10.19
2018-11-04T10:17:20.190Z,10.22
2018-11-04T10:19:48.661Z,10.23
2018-11-04T10:22:16.506Z,10.26
2018-11-04T10:24:44.671Z,10.28
2018-11-04T10:27:12.852Z,10.31
2018-11-04T10:29:41.008Z,10.34
2018-11-04T10:32:09.204Z,10.37
2018-11-04T10:34:37.358Z,10.40
2018-11-04T10:37:06.082Z,10.44
2018-11-04T10:39:34.181Z,10.48
2018-11-04T10:42:02.351Z,10.51
2018-11-04T10:44:30.518Z,10.53
2018-11-04T10:46:58.688Z,10.56
2018-11-04T10:49:26.933Z,10.58
2018-11-04T10:51:55.016Z,10.61
2018-11-04T10:54:23.179Z,10.63
2018-11-04T10:56:51.342Z,10.65
2018-11-04T10:59:19.518Z,10.66
2018-11-04T11:01:47.672Z,10.71
2018-11-04T11:04:15.858Z,10.72
2018-11-04T11:06:44.052Z,10.75
2018-11-04T11:09:12.250Z,10.77
2018-11-04T11:11:40.955Z,10.79
2018-11-04T11:14:09.123Z,10.82
2018-11-04T11:16:37.287Z,10.85
2018-11-04T11:19:05.574Z,10.89
2018-11-04T11:21:33.772Z,10.91
2018-11-04T11:24:01.947Z,10.95
2018-11-04T11:26:30.123Z,10.97
2018-11-04T11:28:58.269Z,10.99
2018-11-04T11:31:26.427Z,11.01
2018-11-04T11:33:54.614Z,11.03
2018-11-04T11:36:22.758Z,11.05
2018-11-04T11:38:50.920Z,11.08
2018-11-04T11:41:19.117Z,11.11
2018-11-04T11:43:47.278Z,11.14
2018-11-04T11:46:15.431Z,11.18
2018-11-04T11:48:43.631Z,11.22
2018-11-04T11:51:11.790Z,11.25
2018-11-04T11:53:39.947Z,11.30
2018-11-04T11:56:08.138Z,11.33
2018-11-04T11:58:36.277Z,11.35
2018-11-04T12:01:04.775Z,11.38
2018-11-04T12:03:32.938Z,11.42
2018-11-04T12:06:01.131Z,11.45
2018-11-04T12:08:29.438Z,11.47
2018-11-04T12:10:57.605Z,11.49
2018-11-04T12:13:25.768Z,11.52
2018-11-04T12:15:53.922Z,11.54
2018-11-04T12:18:28.922Z,11.58
2018-11-04T12:20:57.076Z,11.60
2018-11-04T12:23:25.259Z,11.65
2018-11-04T12:25:53.694Z,11.69
2018-11-04T12:28:28.520Z,11.71
2018-11-04T12:30:56.688Z,11.74
2018-11-04T12:33:24.827Z,11.77
2018-11-04T12:35:53.038Z,11.80
2018-11-04T12:38:21.187Z,11.83
2018-11-04T12:40:49.375Z,11.86
2018-11-04T12:43:17.531Z,11.90
2018-11-04T12:45:45.726Z,11.94
2018-11-04T12:48:13.839Z,11.98
2018-11-04T12:50:41.981Z,12.00
2018-11-04T12:53:10.160Z,12.04
2018-11-04T12:55:38.351Z,12.04
2018-11-04T12:58:06.522Z,12.05
2018-11-04T13:00:34.694Z,12.07
2018-11-04T13:03:02.889Z,12.07
2018-11-04T13:05:31.068Z,12.09
2018-11-04T13:07:59.257Z,12.09
2018-11-04T13:10:27.431Z,12.08
2018-11-04T13:12:55.595Z,12.08
2018-11-04T13:15:30.312Z,12.07
2018-11-04T13:17:58.693Z,12.06
2018-11-04T13:20:26.853Z,12.10
2018-11-04T13:22:55.004Z,12.13
2018-11-04T13:25:23.159Z,12.15
2018-11-04T13:27:51.307Z,12.17
2018-11-04T13:30:19.585Z,12.21
2018-11-04T13:32:47.730Z,12.22
2018-11-04T13:35:15.890Z,12.24
2018-11-04T13:37:44.103Z,12.26
2018-11-04T13:40:12.663Z,12.29
2018-11-04T13:42:41.336Z,12.31
2018-11-04T13:45:10.110Z,12.30
2018-11-04T13:47:38.507Z,12.32
2018-11-04T13:50:08.664Z,12.33
2018-11-04T13:52:36.886Z,12.35
2018-11-04T13:55:05.427Z,12.37
2018-11-04T13:57:33.599Z,12.39
2018-11-04T14:00:01.807Z,12.41
2018-11-04T14:02:30.009Z,12.43
2018-11-04T14:04:58.154Z,12.43
2018-11-04T14:07:26.352Z,12.42
2018-11-04T14:09:54.565Z,12.43
2018-11-04T14:12:22.739Z,12.42
2018-11-04T14:14:50.911Z,12.39
2018-11-04T14:17:19.109Z,12.39
2018-11-04T14:19:47.282Z,12.37
2018-11-04T14:22:15.437Z,12.34
2018-11-04T14:24:43.588Z,12.33
2018-11-04T14:27:11.790Z,12.32
2018-11-04T14:29:39.954Z,12.32
2018-11-04T14:32:08.123Z,12.31
2018-11-04T14:34:36.396Z,12.30
2018-11-04T14:37:04.551Z,12.29
2018-11-04T14:39:32.702Z,12.28
2018-11-04T14:42:00.862Z,12.27
2018-11-04T14:44:29.052Z,12.25
2018-11-04T14:46:57.235Z,12.24
2018-11-04T14:49:25.379Z,12.20
2018-11-04T14:51:53.567Z,12.20
2018-11-04T14:54:21.728Z,12.20
2018-11-04T14:56:49.935Z,12.19
2018-11-04T14:59:18.089Z,12.18
2018-11-04T15:01:46.463Z,12.16
2018-11-04T15:04:14.421Z,12.16
2018-11-04T15:06:42.624Z,12.14
2018-11-04T15:09:10.840Z,12.13
2018-11-04T15:11:39.054Z,12.13
2018-11-04T15:14:07.220Z,12.14
2018-11-04T15:16:35.401Z,12.13
2018-11-04T15:19:03.616Z,12.12
2018-11-04T15:21:31.764Z,12.11
2018-11-04T15:23:59.917Z,12.11
2018-11-04T15:26:28.137Z,12.11
2018-11-04T15:28:56.244Z,12.11
2018-11-04T15:31:24.419Z,12.10
2018-11-04T15:33:52.637Z,12.09
2018-11-04T15:36:20.774Z,12.07
2018-11-04T15:38:48.954Z,12.05
2018-11-04T15:41:17.130Z,12.02
2018-11-04T15:43:45.312Z,12.00
2018-11-04T15:46:13.496Z,11.96
2018-11-04T15:48:41.708Z,11.94
2018-11-04T15:51:09.882Z,11.93
2018-11-04T15:53:38.067Z,11.92
2018-11-04T15:56:06.279Z,11.91
2018-11-04T15:58:34.771Z,11.88
2018-11-04T16:01:02.921Z,11.88
2018-11-04T16:03:31.108Z,11.87
2018-11-04T16:05:59.308Z,11.86
2018-11-04T16:08:27.432Z,11.84
2018-11-04T16:13:57.295Z,11.81
2018-11-04T16:16:42.297Z,11.80
2018-11-04T16:27:25.103Z,11.64
2018-11-04T16:32:32.270Z,11.59
2018-11-04T16:49:12.787Z,11.53
2018-11-04T16:51:40.944Z,11.53
2018-11-04T16:54:09.121Z,11.52
2018-11-04T16:56:37.407Z,11.51
2018-11-04T16:59:05.995Z,11.49
2018-11-04T17:01:34.150Z,11.47
2018-11-04T17:04:02.455Z,11.44
2018-11-04T17:06:30.590Z,11.42
2018-11-04T17:08:58.690Z,11.40
2018-11-04T17:11:26.947Z,11.36
2018-11-04T17:13:55.115Z,11.35
2018-11-04T17:16:23.291Z,11.32
2018-11-04T17:18:51.478Z,11.31
2018-11-04T17:21:19.639Z,11.31
2018-11-04T17:23:47.790Z,11.31
2018-11-04T17:26:15.967Z,11.28
2018-11-04T17:28:44.120Z,11.27
2018-11-04T17:31:12.415Z,11.27
2018-11-04T17:33:40.556Z,11.26
2018-11-04T17:36:08.812Z,11.26
2018-11-04T17:38:36.892Z,11.27
2018-11-04T17:41:05.051Z,11.25
2018-11-04T17:43:33.219Z,11.25
2018-11-04T17:46:01.382Z,11.23
2018-11-04T17:48:29.539Z,11.23
2018-11-04T17:50:57.709Z,11.20
2018-11-04T17:53:25.952Z,11.18
2018-11-04T17:55:54.092Z,11.17
2018-11-04T17:58:22.243Z,11.16
2018-11-04T18:00:50.445Z,11.16
2018-11-04T18:03:18.609Z,11.15
2018-11-04T18:05:46.764Z,11.13
2018-11-04T18:08:14.956Z,11.11
2018-11-04T18:10:43.163Z,11.10
2018-11-04T18:13:11.360Z,11.07
2018-11-04T18:15:39.540Z,11.07
2018-11-04T18:18:07.699Z,11.06
2018-11-04T18:20:35.863Z,11.06
2018-11-04T18:23:04.011Z,11.03
2018-11-04T18:25:32.168Z,11.03
2018-11-04T18:28:00.372Z,11.02
2018-11-04T18:30:28.510Z,11.01
2018-11-04T18:32:56.675Z,11.02
2018-11-04T18:35:24.838Z,11.03
2018-11-04T18:37:53.034Z,11.02
2018-11-04T18:40:21.186Z,11.01
2018-11-04T18:42:49.359Z,11.00
2018-11-04T18:45:18.005Z,10.99
2018-11-04T18:47:46.248Z,10.97
2018-11-04T18:50:15.188Z,10.97
2018-11-04T18:52:43.412Z,10.96
2018-11-04T18:55:12.420Z,10.93
2018-11-04T18:57:41.323Z,10.92
2018-11-04T19:00:12.148Z,10.93
2018-11-04T19:02:40.422Z,10.90
2018-11-04T19:05:09.236Z,10.87
2018-11-04T19:07:37.670Z,10.85
2018-11-04T19:10:07.728Z,10.83
2018-11-04T19:12:35.879Z,10.81
2018-11-04T19:15:04.098Z,10.81
2018-11-04T19:17:32.283Z,10.81
2018-11-04T19:20:00.447Z,10.78
2018-11-04T19:22:28.597Z,10.78
2018-11-04T19:24:56.772Z,10.76
2018-11-04T19:27:24.934Z,10.74
2018-11-04T19:29:53.146Z,10.70
2018-11-04T19:32:21.300Z,10.67
2018-11-04T19:34:49.966Z,10.67
2018-11-04T19:37:18.113Z,10.68
2018-11-04T19:39:46.292Z,10.67
2018-11-04T19:42:14.478Z,10.67
2018-11-04T19:44:42.642Z,10.65
2018-11-04T19:47:10.794Z,10.66
2018-11-04T19:49:38.959Z,10.68
2018-11-04T19:52:07.121Z,10.68
2018-11-04T19:54:35.343Z,10.72
2018-11-04T19:57:03.483Z,10.74
2018-11-04T19:59:31.699Z,10.76
2018-11-04T20:01:59.887Z,10.77
2018-11-04T20:04:28.083Z,10.76
2018-11-04T20:06:56.267Z,10.75
2018-11-04T20:09:24.428Z,10.73
2018-11-04T20:11:52.596Z,10.72
2018-11-04T20:14:22.144Z,10.67
2018-11-04T20:16:51.338Z,10.65
2018-11-04T20:19:24.880Z,10.63
2018-11-04T20:21:53.623Z,10.62
2018-11-04T20:24:27.099Z,10.60
2018-11-04T20:26:55.263Z,10.58
2018-11-04T20:29:23.778Z,10.57
2018-11-04T20:31:57.098Z,10.55
2018-11-04T20:34:25.271Z,10.53
2018-11-04T20:36:53.470Z,10.51
2018-11-04T20:39:27.024Z,10.49
2018-11-04T20:41:55.151Z,10.47
2018-11-04T20:44:29.978Z,10.49
2018-11-04T20:46:58.171Z,10.49
2018-11-04T20:49:31.567Z,10.49
2018-11-04T20:51:59.806Z,10.48
2018-11-04T20:54:27.970Z,10.46
2018-11-04T20:57:01.339Z,10.45
2018-11-04T20:59:29.503Z,10.47
2018-11-04T21:01:57.723Z,10.48
2018-11-04T21:04:25.820Z,10.51
2018-11-04T21:06:54.011Z,10.51
2018-11-04T21:09:22.180Z,10.52
2018-11-04T21:11:50.340Z,10.56
2018-11-04T21:14:18.549Z,10.58
2018-11-04T21:16:46.855Z,10.58
2018-11-04T21:19:14.819Z,10.59
2018-11-04T21:21:43.047Z,10.58
2018-11-04T21:24:11.170Z,10.58
2018-11-04T21:26:39.398Z,10.58
2018-11-04T21:29:08.555Z,10.58
2018-11-04T21:31:36.536Z,10.58
2018-11-04T21:34:04.917Z,10.56
2018-11-04T21:36:33.260Z,10.56
2018-11-04T21:39:01.292Z,10.54
2018-11-04T21:41:29.433Z,10.52
2018-11-04T21:43:57.808Z,10.49
2018-11-04T21:46:25.811Z,10.46
2018-11-04T21:48:53.979Z,10.44
2018-11-04T21:51:22.131Z,10.41
2018-11-04T21:53:50.344Z,10.40
2018-11-04T21:56:18.622Z,10.36
2018-11-04T21:58:46.707Z,10.33
2018-11-04T22:01:14.859Z,10.30
2018-11-04T22:03:43.119Z,10.26
2018-11-04T22:06:11.168Z,10.23
2018-11-04T22:08:39.308Z,10.21
2018-11-04T22:11:07.474Z,10.19
2018-11-04T22:13:35.655Z,10.17
2018-11-04T22:16:03.782Z,10.17
2018-11-04T22:18:31.947Z,10.16
2018-11-04T22:21:00.144Z,10.15
2018-11-04T22:23:28.258Z,10.15
2018-11-04T22:25:56.415Z,10.12
2018-11-04T22:28:24.546Z,10.09
2018-11-04T22:30:52.718Z,10.08
2018-11-04T22:33:20.883Z,10.08
2018-11-04T22:35:49.039Z,10.06
2018-11-04T22:38:17.191Z,10.03
2018-11-04T22:40:45.507Z,10.01
2018-11-04T22:43:13.715Z,10.00
2018-11-04T22:45:41.859Z,9.97
2018-11-04T22:48:10.015Z,9.94
2018-11-04T22:50:38.171Z,9.94
2018-11-04T22:53:06.331Z,9.92
2018-11-04T22:55:34.490Z,9.91
2018-11-04T22:58:04.910Z,9.88
2018-11-04T23:00:38.915Z,9.87
2018-11-04T23:03:07.080Z,9.86
2018-11-04T23:05:35.245Z,9.85
2018-11-04T23:08:03.543Z,9.85
2018-11-04T23:10:31.721Z,9.83
2018-11-04T23:12:59.858Z,9.83
2018-11-04T23:15:28.011Z,9.80
2018-11-04T23:17:56.168Z,9.81
2018-11-04T23:20:24.366Z,9.79
2018-11-04T23:22:52.520Z,9.77
2018-11-04T23:25:20.669Z,9.77
2018-11-04T23:27:48.806Z,9.74
2018-11-04T23:30:18.231Z,9.71
2018-11-04T23:32:46.783Z,9.71
2018-11-04T23:35:14.956Z,9.68
2018-11-04T23:37:43.886Z,9.65
2018-11-04T23:40:12.366Z,9.63
2018-11-04T23:42:40.537Z,9.63
2018-11-04T23:45:10.230Z,9.61
2018-11-04T23:47:38.528Z,9.61
2018-11-04T23:50:09.870Z,9.58
2018-11-04T23:52:38.031Z,9.54
2018-11-04T23:55:06.818Z,9.50
2018-11-04T23:57:34.992Z,9.48
